KFSD/FSD METAR and TAF weather

Enter ICAO airport designator
Station Type Date Time Source
KFSD METAR 2019/06/26 19:56 UTC NOAA

KFSD 261956Z VRB03KT 10SM FEW045 BKN250 29/18 A2998 RMK AO2 SLP145 T02940183


Station Type Date Time Source
KFSD Decoded METAR 2019/06/26 19:56 UTC NOAA

SIOUX FALLS FOSS FIELD, SD, United States (KFSD) 43-35N 096-45W 434M
Jun 26, 2019 - 03:56 PM EDT / 2019.06.26 1956 UTC
Wind: Variable at 3 MPH (3 KT):0
Visibility: 10 mile(s):0
Sky conditions: mostly cloudy
Temperature: 84.9 F (29.4 C)
Dew Point: 64.9 F (18.3 C)
Relative Humidity: 51%
Pressure (altimeter): 29.98 in. Hg (1015 hPa)
ob: KFSD 261956Z VRB03KT 10SM FEW045 BKN250 29/18 A2998 RMK AO2 SLP145 T02940183
cycle: 20

Station Type Date Time Source
KFSD TAF 2019/06/26 18:22 UTC NOAA

TAF KFSD 261720Z 2618/2718 15010KT P6SM SCT035
FM270800 14007KT P6SM VCTS BKN060CB
TEMPO 2708/2711 4SM TSRA BR OVC040CB
FM271100 14007KT P6SM BKN100

Example: see airport list